sensor_id;sensor_type;location;lat;lon;timestamp;P1;durP1;ratioP1;P2;durP2;ratioP2
84260;SDS011;74405;44.868;18.808;2024-01-15T00:00:46;114.07;;;48.33;;
84260;SDS011;74405;44.868;18.808;2024-01-15T00:04:11;109.93;;;49.80;;
84260;SDS011;74405;44.868;18.808;2024-01-15T00:07:36;112.43;;;50.95;;
84260;SDS011;74405;44.868;18.808;2024-01-15T00:11:00;106.10;;;51.00;;
84260;SDS011;74405;44.868;18.808;2024-01-15T00:14:24;122.57;;;55.22;;
84260;SDS011;74405;44.868;18.808;2024-01-15T00:17:49;100.43;;;48.45;;
84260;SDS011;74405;44.868;18.808;2024-01-15T00:21:13;110.07;;;52.30;;
84260;SDS011;74405;44.868;18.808;2024-01-15T00:24:37;108.47;;;48.25;;
84260;SDS011;74405;44.868;18.808;2024-01-15T00:28:01;139.05;;;62.47;;
84260;SDS011;74405;44.868;18.808;2024-01-15T00:31:25;124.82;;;56.72;;
84260;SDS011;74405;44.868;18.808;2024-01-15T00:34:49;109.20;;;51.95;;
84260;SDS011;74405;44.868;18.808;2024-01-15T00:38:14;125.80;;;61.00;;
84260;SDS011;74405;44.868;18.808;2024-01-15T00:41:38;123.70;;;58.15;;
84260;SDS011;74405;44.868;18.808;2024-01-15T00:45:04;112.93;;;50.08;;
84260;SDS011;74405;44.868;18.808;2024-01-15T00:48:28;125.05;;;55.80;;
84260;SDS011;74405;44.868;18.808;2024-01-15T00:51:52;116.30;;;53.65;;
84260;SDS011;74405;44.868;18.808;2024-01-15T00:55:16;109.97;;;52.28;;
84260;SDS011;74405;44.868;18.808;2024-01-15T00:58:41;113.07;;;56.08;;
84260;SDS011;74405;44.868;18.808;2024-01-15T01:02:05;120.25;;;55.53;;
84260;SDS011;74405;44.868;18.808;2024-01-15T01:05:29;117.07;;;56.03;;
84260;SDS011;74405;44.868;18.808;2024-01-15T01:08:54;122.72;;;54.35;;
84260;SDS011;74405;44.868;18.808;2024-01-15T01:12:18;117.30;;;53.85;;
84260;SDS011;74405;44.868;18.808;2024-01-15T01:15:42;107.72;;;53.75;;
84260;SDS011;74405;44.868;18.808;2024-01-15T01:19:06;116.72;;;57.10;;
84260;SDS011;74405;44.868;18.808;2024-01-15T01:22:33;136.57;;;60.67;;
84260;SDS011;74405;44.868;18.808;2024-01-15T01:25:57;127.93;;;58.17;;
84260;SDS011;74405;44.868;18.808;2024-01-15T01:29:22;126.25;;;56.28;;
84260;SDS011;74405;44.868;18.808;2024-01-15T01:32:46;125.55;;;55.55;;
84260;SDS011;74405;44.868;18.808;2024-01-15T01:36:10;106.15;;;50.47;;
84260;SDS011;74405;44.868;18.808;2024-01-15T01:39:35;86.88;;;45.10;;
84260;SDS011;74405;44.868;18.808;2024-01-15T01:42:59;77.93;;;42.13;;
84260;SDS011;74405;44.868;18.808;2024-01-15T01:46:23;75.68;;;36.67;;
84260;SDS011;74405;44.868;18.808;2024-01-15T01:49:52;69.22;;;33.88;;
84260;SDS011;74405;44.868;18.808;2024-01-15T01:53:18;71.63;;;37.03;;
84260;SDS011;74405;44.868;18.808;2024-01-15T01:56:43;72.65;;;37.67;;
84260;SDS011;74405;44.868;18.808;2024-01-15T02:00:07;67.28;;;33.40;;
84260;SDS011;74405;44.868;18.808;2024-01-15T02:03:32;61.47;;;30.95;;
84260;SDS011;74405;44.868;18.808;2024-01-15T02:06:57;58.30;;;30.35;;
84260;SDS011;74405;44.868;18.808;2024-01-15T02:10:21;57.72;;;29.52;;
84260;SDS011;74405;44.868;18.808;2024-01-15T02:13:45;50.33;;;26.63;;
84260;SDS011;74405;44.868;18.808;2024-01-15T02:17:10;53.10;;;25.48;;
84260;SDS011;74405;44.868;18.808;2024-01-15T02:20:34;48.63;;;27.42;;
84260;SDS011;74405;44.868;18.808;2024-01-15T02:23:58;44.47;;;24.70;;
84260;SDS011;74405;44.868;18.808;2024-01-15T02:27:22;44.03;;;23.80;;
84260;SDS011;74405;44.868;18.808;2024-01-15T02:30:47;47.05;;;23.35;;
84260;SDS011;74405;44.868;18.808;2024-01-15T02:34:11;40.63;;;20.77;;
84260;SDS011;74405;44.868;18.808;2024-01-15T02:37:35;43.08;;;21.67;;
84260;SDS011;74405;44.868;18.808;2024-01-15T02:40:59;44.88;;;21.30;;
84260;SDS011;74405;44.868;18.808;2024-01-15T02:44:23;37.97;;;22.27;;
84260;SDS011;74405;44.868;18.808;2024-01-15T02:47:48;43.42;;;24.30;;
84260;SDS011;74405;44.868;18.808;2024-01-15T02:51:12;44.17;;;22.92;;
84260;SDS011;74405;44.868;18.808;2024-01-15T02:54:36;39.15;;;22.35;;
84260;SDS011;74405;44.868;18.808;2024-01-15T02:58:00;46.53;;;26.33;;
84260;SDS011;74405;44.868;18.808;2024-01-15T03:01:25;48.13;;;26.35;;
84260;SDS011;74405;44.868;18.808;2024-01-15T03:04:49;50.92;;;28.13;;
84260;SDS011;74405;44.868;18.808;2024-01-15T03:08:13;53.25;;;28.60;;
84260;SDS011;74405;44.868;18.808;2024-01-15T03:11:38;54.08;;;25.95;;
84260;SDS011;74405;44.868;18.808;2024-01-15T03:15:02;52.42;;;29.02;;
84260;SDS011;74405;44.868;18.808;2024-01-15T03:18:36;51.30;;;24.50;;
84260;SDS011;74405;44.868;18.808;2024-01-15T03:22:00;55.50;;;27.00;;
84260;SDS011;74405;44.868;18.808;2024-01-15T03:25:25;50.60;;;29.15;;
84260;SDS011;74405;44.868;18.808;2024-01-15T03:28:49;55.42;;;27.02;;
84260;SDS011;74405;44.868;18.808;2024-01-15T03:32:13;46.80;;;23.63;;
84260;SDS011;74405;44.868;18.808;2024-01-15T03:35:37;46.08;;;23.98;;
84260;SDS011;74405;44.868;18.808;2024-01-15T03:39:01;45.75;;;23.40;;
84260;SDS011;74405;44.868;18.808;2024-01-15T03:42:25;46.55;;;25.13;;
84260;SDS011;74405;44.868;18.808;2024-01-15T03:45:50;43.85;;;23.35;;
84260;SDS011;74405;44.868;18.808;2024-01-15T03:49:14;43.20;;;23.33;;
84260;SDS011;74405;44.868;18.808;2024-01-15T03:52:38;40.90;;;21.90;;
84260;SDS011;74405;44.868;18.808;2024-01-15T03:56:03;40.90;;;20.52;;
84260;SDS011;74405;44.868;18.808;2024-01-15T03:59:28;35.25;;;19.67;;
84260;SDS011;74405;44.868;18.808;2024-01-15T04:02:52;31.73;;;18.23;;
84260;SDS011;74405;44.868;18.808;2024-01-15T04:06:16;31.17;;;17.30;;
84260;SDS011;74405;44.868;18.808;2024-01-15T04:09:40;33.83;;;18.48;;
84260;SDS011;74405;44.868;18.808;2024-01-15T04:13:05;33.30;;;17.70;;
84260;SDS011;74405;44.868;18.808;2024-01-15T04:16:29;32.75;;;18.15;;
84260;SDS011;74405;44.868;18.808;2024-01-15T04:19:53;31.50;;;16.42;;
84260;SDS011;74405;44.868;18.808;2024-01-15T04:23:18;37.58;;;18.63;;
84260;SDS011;74405;44.868;18.808;2024-01-15T04:26:43;29.08;;;16.38;;
84260;SDS011;74405;44.868;18.808;2024-01-15T04:30:07;32.05;;;16.45;;
84260;SDS011;74405;44.868;18.808;2024-01-15T04:33:31;37.28;;;19.70;;
84260;SDS011;74405;44.868;18.808;2024-01-15T04:36:56;38.10;;;20.00;;
84260;SDS011;74405;44.868;18.808;2024-01-15T04:40:20;38.70;;;21.13;;
84260;SDS011;74405;44.868;18.808;2024-01-15T04:43:44;37.25;;;20.52;;
84260;SDS011;74405;44.868;18.808;2024-01-15T04:47:08;38.33;;;21.52;;
84260;SDS011;74405;44.868;18.808;2024-01-15T04:50:32;41.50;;;23.40;;
84260;SDS011;74405;44.868;18.808;2024-01-15T04:53:56;53.20;;;28.02;;
84260;SDS011;74405;44.868;18.808;2024-01-15T04:57:20;43.90;;;26.15;;
84260;SDS011;74405;44.868;18.808;2024-01-15T05:00:45;35.90;;;18.73;;
84260;SDS011;74405;44.868;18.808;2024-01-15T05:04:09;35.00;;;19.92;;
84260;SDS011;74405;44.868;18.808;2024-01-15T05:07:33;33.45;;;17.95;;
84260;SDS011;74405;44.868;18.808;2024-01-15T05:10:58;35.47;;;18.75;;
84260;SDS011;74405;44.868;18.808;2024-01-15T05:14:22;34.63;;;18.60;;
84260;SDS011;74405;44.868;18.808;2024-01-15T05:17:47;33.80;;;18.67;;
84260;SDS011;74405;44.868;18.808;2024-01-15T05:21:12;42.63;;;26.80;;
84260;SDS011;74405;44.868;18.808;2024-01-15T05:24:36;44.92;;;27.23;;
84260;SDS011;74405;44.868;18.808;2024-01-15T05:28:00;43.35;;;26.35;;
84260;SDS011;74405;44.868;18.808;2024-01-15T05:31:25;46.08;;;25.15;;
84260;SDS011;74405;44.868;18.808;2024-01-15T05:34:49;41.58;;;23.83;;
84260;SDS011;74405;44.868;18.808;2024-01-15T05:38:15;47.42;;;27.00;;
84260;SDS011;74405;44.868;18.808;2024-01-15T05:41:40;44.88;;;25.38;;
84260;SDS011;74405;44.868;18.808;2024-01-15T05:45:05;47.35;;;25.00;;
84260;SDS011;74405;44.868;18.808;2024-01-15T05:48:29;45.22;;;24.90;;
84260;SDS011;74405;44.868;18.808;2024-01-15T05:51:53;53.80;;;27.67;;
84260;SDS011;74405;44.868;18.808;2024-01-15T05:55:18;53.03;;;29.30;;
84260;SDS011;74405;44.868;18.808;2024-01-15T05:58:42;62.00;;;31.63;;
84260;SDS011;74405;44.868;18.808;2024-01-15T06:02:08;66.93;;;33.83;;
84260;SDS011;74405;44.868;18.808;2024-01-15T06:05:32;65.78;;;34.33;;
84260;SDS011;74405;44.868;18.808;2024-01-15T06:08:56;64.47;;;32.53;;
84260;SDS011;74405;44.868;18.808;2024-01-15T06:12:22;68.72;;;34.03;;
84260;SDS011;74405;44.868;18.808;2024-01-15T06:15:46;61.15;;;29.55;;
84260;SDS011;74405;44.868;18.808;2024-01-15T06:19:10;84.18;;;42.97;;
84260;SDS011;74405;44.868;18.808;2024-01-15T06:22:35;96.72;;;49.10;;
84260;SDS011;74405;44.868;18.808;2024-01-15T06:26:05;94.07;;;49.40;;
84260;SDS011;74405;44.868;18.808;2024-01-15T06:29:29;95.63;;;52.42;;
84260;SDS011;74405;44.868;18.808;2024-01-15T06:32:55;76.88;;;42.03;;
84260;SDS011;74405;44.868;18.808;2024-01-15T06:36:20;67.30;;;36.13;;
84260;SDS011;74405;44.868;18.808;2024-01-15T06:39:45;69.85;;;39.80;;
84260;SDS011;74405;44.868;18.808;2024-01-15T06:43:11;51.25;;;27.13;;
84260;SDS011;74405;44.868;18.808;2024-01-15T06:46:42;76.75;;;37.72;;
84260;SDS011;74405;44.868;18.808;2024-01-15T06:50:07;92.70;;;44.47;;
84260;SDS011;74405;44.868;18.808;2024-01-15T06:53:31;155.25;;;78.30;;
84260;SDS011;74405;44.868;18.808;2024-01-15T06:56:56;84.85;;;40.80;;
84260;SDS011;74405;44.868;18.808;2024-01-15T07:00:20;85.68;;;41.55;;
84260;SDS011;74405;44.868;18.808;2024-01-15T07:03:53;82.05;;;42.03;;
84260;SDS011;74405;44.868;18.808;2024-01-15T07:07:19;71.35;;;38.17;;
84260;SDS011;74405;44.868;18.808;2024-01-15T07:10:43;70.45;;;35.67;;
84260;SDS011;74405;44.868;18.808;2024-01-15T07:14:12;62.33;;;34.78;;
84260;SDS011;74405;44.868;18.808;2024-01-15T07:17:36;63.95;;;35.50;;
84260;SDS011;74405;44.868;18.808;2024-01-15T07:21:00;57.88;;;34.10;;
84260;SDS011;74405;44.868;18.808;2024-01-15T07:24:26;59.33;;;34.85;;
84260;SDS011;74405;44.868;18.808;2024-01-15T07:27:51;48.78;;;29.73;;
84260;SDS011;74405;44.868;18.808;2024-01-15T07:31:16;61.67;;;32.05;;
84260;SDS011;74405;44.868;18.808;2024-01-15T07:34:41;60.80;;;31.30;;
84260;SDS011;74405;44.868;18.808;2024-01-15T07:38:05;131.13;;;57.25;;
84260;SDS011;74405;44.868;18.808;2024-01-15T07:41:29;108.75;;;50.80;;
84260;SDS011;74405;44.868;18.808;2024-01-15T07:44:54;128.55;;;55.92;;
84260;SDS011;74405;44.868;18.808;2024-01-15T07:48:18;94.63;;;44.33;;
84260;SDS011;74405;44.868;18.808;2024-01-15T07:51:42;81.68;;;43.60;;
84260;SDS011;74405;44.868;18.808;2024-01-15T07:55:12;73.60;;;40.90;;
84260;SDS011;74405;44.868;18.808;2024-01-15T07:58:37;62.63;;;34.80;;
84260;SDS011;74405;44.868;18.808;2024-01-15T08:02:05;39.47;;;22.92;;
84260;SDS011;74405;44.868;18.808;2024-01-15T08:05:30;30.83;;;18.38;;
84260;SDS011;74405;44.868;18.808;2024-01-15T08:08:55;31.60;;;19.02;;
84260;SDS011;74405;44.868;18.808;2024-01-15T08:12:44;40.65;;;22.63;;
84260;SDS011;74405;44.868;18.808;2024-01-15T08:16:08;43.45;;;25.48;;
84260;SDS011;74405;44.868;18.808;2024-01-15T08:19:32;42.60;;;23.30;;
84260;SDS011;74405;44.868;18.808;2024-01-15T08:22:56;44.33;;;28.35;;
84260;SDS011;74405;44.868;18.808;2024-01-15T08:26:25;46.33;;;28.80;;
84260;SDS011;74405;44.868;18.808;2024-01-15T08:29:49;35.83;;;22.17;;
84260;SDS011;74405;44.868;18.808;2024-01-15T08:33:13;50.35;;;26.42;;
84260;SDS011;74405;44.868;18.808;2024-01-15T08:36:38;45.60;;;23.50;;
84260;SDS011;74405;44.868;18.808;2024-01-15T08:40:02;44.40;;;23.00;;
84260;SDS011;74405;44.868;18.808;2024-01-15T08:43:27;49.83;;;23.38;;
84260;SDS011;74405;44.868;18.808;2024-01-15T08:46:51;35.75;;;20.17;;
84260;SDS011;74405;44.868;18.808;2024-01-15T08:50:16;43.33;;;22.33;;
84260;SDS011;74405;44.868;18.808;2024-01-15T08:53:40;45.40;;;24.83;;
84260;SDS011;74405;44.868;18.808;2024-01-15T08:57:04;47.78;;;26.30;;
84260;SDS011;74405;44.868;18.808;2024-01-15T09:00:29;43.95;;;23.27;;
84260;SDS011;74405;44.868;18.808;2024-01-15T09:03:54;34.38;;;19.17;;
84260;SDS011;74405;44.868;18.808;2024-01-15T09:07:37;42.22;;;24.27;;
84260;SDS011;74405;44.868;18.808;2024-01-15T09:11:02;56.25;;;29.88;;
84260;SDS011;74405;44.868;18.808;2024-01-15T09:14:31;39.22;;;22.90;;
84260;SDS011;74405;44.868;18.808;2024-01-15T09:17:56;55.53;;;29.52;;
84260;SDS011;74405;44.868;18.808;2024-01-15T09:21:23;59.90;;;33.03;;
84260;SDS011;74405;44.868;18.808;2024-01-15T09:24:50;71.43;;;36.60;;
84260;SDS011;74405;44.868;18.808;2024-01-15T09:28:18;79.80;;;41.83;;
84260;SDS011;74405;44.868;18.808;2024-01-15T09:31:46;80.78;;;41.80;;
84260;SDS011;74405;44.868;18.808;2024-01-15T09:35:10;61.83;;;32.60;;
84260;SDS011;74405;44.868;18.808;2024-01-15T09:38:40;54.55;;;29.13;;
84260;SDS011;74405;44.868;18.808;2024-01-15T09:42:05;50.47;;;27.35;;
84260;SDS011;74405;44.868;18.808;2024-01-15T09:45:30;49.28;;;27.67;;
84260;SDS011;74405;44.868;18.808;2024-01-15T09:48:56;45.97;;;26.15;;
84260;SDS011;74405;44.868;18.808;2024-01-15T09:52:23;53.08;;;31.30;;
84260;SDS011;74405;44.868;18.808;2024-01-15T09:55:49;44.80;;;24.92;;
84260;SDS011;74405;44.868;18.808;2024-01-15T09:59:18;46.78;;;25.23;;
84260;SDS011;74405;44.868;18.808;2024-01-15T10:02:43;41.63;;;22.95;;
84260;SDS011;74405;44.868;18.808;2024-01-15T10:06:15;47.75;;;26.33;;
84260;SDS011;74405;44.868;18.808;2024-01-15T10:09:41;46.13;;;26.77;;
84260;SDS011;74405;44.868;18.808;2024-01-15T10:13:06;61.05;;;34.63;;
84260;SDS011;74405;44.868;18.808;2024-01-15T10:16:32;62.00;;;37.17;;
84260;SDS011;74405;44.868;18.808;2024-01-15T10:19:56;60.17;;;34.40;;
84260;SDS011;74405;44.868;18.808;2024-01-15T10:23:24;73.20;;;39.53;;
84260;SDS011;74405;44.868;18.808;2024-01-15T10:27:07;75.68;;;41.22;;
84260;SDS011;74405;44.868;18.808;2024-01-15T10:30:39;105.97;;;51.80;;
84260;SDS011;74405;44.868;18.808;2024-01-15T10:34:21;65.03;;;37.83;;
84260;SDS011;74405;44.868;18.808;2024-01-15T10:37:47;51.88;;;30.45;;
84260;SDS011;74405;44.868;18.808;2024-01-15T10:41:13;60.65;;;32.10;;
84260;SDS011;74405;44.868;18.808;2024-01-15T10:44:38;61.42;;;37.03;;
84260;SDS011;74405;44.868;18.808;2024-01-15T10:48:05;56.80;;;29.42;;
84260;SDS011;74405;44.868;18.808;2024-01-15T10:51:30;50.03;;;30.70;;
84260;SDS011;74405;44.868;18.808;2024-01-15T10:54:55;60.05;;;33.80;;
84260;SDS011;74405;44.868;18.808;2024-01-15T10:58:20;59.13;;;32.50;;
84260;SDS011;74405;44.868;18.808;2024-01-15T11:01:49;53.40;;;30.15;;
84260;SDS011;74405;44.868;18.808;2024-01-15T11:05:14;57.13;;;31.27;;
84260;SDS011;74405;44.868;18.808;2024-01-15T11:08:43;61.42;;;34.20;;
84260;SDS011;74405;44.868;18.808;2024-01-15T11:12:08;79.85;;;41.17;;
84260;SDS011;74405;44.868;18.808;2024-01-15T11:15:47;77.70;;;42.40;;
84260;SDS011;74405;44.868;18.808;2024-01-15T11:19:24;74.13;;;51.95;;
84260;SDS011;74405;44.868;18.808;2024-01-15T11:22:48;67.40;;;41.15;;
84260;SDS011;74405;44.868;18.808;2024-01-15T11:26:36;70.20;;;39.78;;
84260;SDS011;74405;44.868;18.808;2024-01-15T11:30:16;60.88;;;37.15;;
84260;SDS011;74405;44.868;18.808;2024-01-15T11:33:49;69.03;;;39.92;;
84260;SDS011;74405;44.868;18.808;2024-01-15T11:37:17;70.38;;;42.17;;
84260;SDS011;74405;44.868;18.808;2024-01-15T11:40:54;64.72;;;37.95;;
84260;SDS011;74405;44.868;18.808;2024-01-15T11:44:20;64.43;;;36.45;;
84260;SDS011;74405;44.868;18.808;2024-01-15T11:51:17;70.25;;;36.35;;
84260;SDS011;74405;44.868;18.808;2024-01-15T11:58:28;57.95;;;33.30;;
84260;SDS011;74405;44.868;18.808;2024-01-15T12:01:52;62.42;;;34.17;;
84260;SDS011;74405;44.868;18.808;2024-01-15T12:05:17;64.05;;;34.85;;
84260;SDS011;74405;44.868;18.808;2024-01-15T12:08:49;62.05;;;34.75;;
84260;SDS011;74405;44.868;18.808;2024-01-15T12:11:14;66.32;;;38.95;;
84260;SDS011;74405;44.868;18.808;2024-01-15T12:13:44;70.55;;;36.42;;
84260;SDS011;74405;44.868;18.808;2024-01-15T12:16:10;72.18;;;40.90;;
84260;SDS011;74405;44.868;18.808;2024-01-15T12:18:37;70.53;;;38.33;;
84260;SDS011;74405;44.868;18.808;2024-01-15T12:21:03;63.25;;;35.50;;
84260;SDS011;74405;44.868;18.808;2024-01-15T12:23:29;71.18;;;38.38;;
84260;SDS011;74405;44.868;18.808;2024-01-15T12:25:55;63.33;;;36.95;;
84260;SDS011;74405;44.868;18.808;2024-01-15T12:28:21;102.28;;;49.75;;
84260;SDS011;74405;44.868;18.808;2024-01-15T12:30:48;109.82;;;56.70;;
84260;SDS011;74405;44.868;18.808;2024-01-15T12:33:14;107.32;;;57.90;;
84260;SDS011;74405;44.868;18.808;2024-01-15T12:35:40;114.10;;;59.85;;
84260;SDS011;74405;44.868;18.808;2024-01-15T12:38:06;120.63;;;63.58;;
84260;SDS011;74405;44.868;18.808;2024-01-15T12:40:32;115.18;;;59.72;;
84260;SDS011;74405;44.868;18.808;2024-01-15T12:42:59;111.28;;;60.63;;
84260;SDS011;74405;44.868;18.808;2024-01-15T12:45:26;135.05;;;72.00;;
84260;SDS011;74405;44.868;18.808;2024-01-15T12:47:52;132.75;;;71.47;;
84260;SDS011;74405;44.868;18.808;2024-01-15T12:50:18;128.40;;;67.53;;
84260;SDS011;74405;44.868;18.808;2024-01-15T12:52:43;70.60;;;40.08;;
84260;SDS011;74405;44.868;18.808;2024-01-15T12:55:09;68.55;;;41.88;;
84260;SDS011;74405;44.868;18.808;2024-01-15T12:57:35;58.15;;;33.65;;
84260;SDS011;74405;44.868;18.808;2024-01-15T13:00:02;57.33;;;34.40;;
84260;SDS011;74405;44.868;18.808;2024-01-15T13:02:37;60.53;;;34.33;;
84260;SDS011;74405;44.868;18.808;2024-01-15T13:05:05;63.08;;;35.72;;
84260;SDS011;74405;44.868;18.808;2024-01-15T13:07:33;63.42;;;36.47;;
84260;SDS011;74405;44.868;18.808;2024-01-15T13:09:59;62.80;;;34.08;;
84260;SDS011;74405;44.868;18.808;2024-01-15T13:12:25;51.60;;;31.40;;
84260;SDS011;74405;44.868;18.808;2024-01-15T13:14:50;53.90;;;30.60;;
84260;SDS011;74405;44.868;18.808;2024-01-15T13:17:16;53.97;;;26.70;;
84260;SDS011;74405;44.868;18.808;2024-01-15T13:19:42;66.72;;;34.70;;
84260;SDS011;74405;44.868;18.808;2024-01-15T13:22:07;55.25;;;30.92;;
84260;SDS011;74405;44.868;18.808;2024-01-15T13:24:34;56.95;;;28.15;;
84260;SDS011;74405;44.868;18.808;2024-01-15T13:27:02;53.05;;;28.00;;
84260;SDS011;74405;44.868;18.808;2024-01-15T13:29:29;51.30;;;29.25;;
84260;SDS011;74405;44.868;18.808;2024-01-15T13:31:56;45.13;;;25.95;;
84260;SDS011;74405;44.868;18.808;2024-01-15T13:34:22;41.28;;;23.85;;
84260;SDS011;74405;44.868;18.808;2024-01-15T13:36:47;41.65;;;24.63;;
84260;SDS011;74405;44.868;18.808;2024-01-15T13:39:15;37.50;;;22.50;;
84260;SDS011;74405;44.868;18.808;2024-01-15T13:41:46;42.72;;;23.95;;
84260;SDS011;74405;44.868;18.808;2024-01-15T13:44:12;40.17;;;22.92;;
84260;SDS011;74405;44.868;18.808;2024-01-15T13:46:40;38.65;;;22.40;;
84260;SDS011;74405;44.868;18.808;2024-01-15T13:49:07;40.88;;;23.58;;
84260;SDS011;74405;44.868;18.808;2024-01-15T13:51:38;40.10;;;22.58;;
84260;SDS011;74405;44.868;18.808;2024-01-15T13:54:06;40.63;;;21.63;;
84260;SDS011;74405;44.868;18.808;2024-01-15T13:56:33;38.47;;;22.75;;
84260;SDS011;74405;44.868;18.808;2024-01-15T13:59:00;36.20;;;20.17;;
84260;SDS011;74405;44.868;18.808;2024-01-15T14:01:26;34.85;;;21.20;;
84260;SDS011;74405;44.868;18.808;2024-01-15T14:03:53;33.58;;;20.23;;
84260;SDS011;74405;44.868;18.808;2024-01-15T14:06:22;34.58;;;19.38;;
84260;SDS011;74405;44.868;18.808;2024-01-15T14:08:54;37.65;;;21.30;;
84260;SDS011;74405;44.868;18.808;2024-01-15T14:11:24;37.95;;;21.48;;
84260;SDS011;74405;44.868;18.808;2024-01-15T14:13:52;39.92;;;21.67;;
84260;SDS011;74405;44.868;18.808;2024-01-15T14:16:21;41.45;;;22.77;;
84260;SDS011;74405;44.868;18.808;2024-01-15T14:18:48;41.38;;;20.80;;
84260;SDS011;74405;44.868;18.808;2024-01-15T14:21:17;38.85;;;21.77;;
84260;SDS011;74405;44.868;18.808;2024-01-15T14:23:44;35.75;;;20.38;;
84260;SDS011;74405;44.868;18.808;2024-01-15T14:26:10;39.75;;;21.38;;
84260;SDS011;74405;44.868;18.808;2024-01-15T14:28:37;43.20;;;23.75;;
84260;SDS011;74405;44.868;18.808;2024-01-15T14:31:06;42.65;;;23.65;;
84260;SDS011;74405;44.868;18.808;2024-01-15T14:33:34;46.67;;;25.00;;
84260;SDS011;74405;44.868;18.808;2024-01-15T14:36:01;42.67;;;23.92;;
84260;SDS011;74405;44.868;18.808;2024-01-15T14:38:29;44.17;;;25.27;;
84260;SDS011;74405;44.868;18.808;2024-01-15T14:40:55;43.55;;;23.45;;
84260;SDS011;74405;44.868;18.808;2024-01-15T14:43:21;42.58;;;24.38;;
84260;SDS011;74405;44.868;18.808;2024-01-15T14:45:50;44.75;;;24.50;;
84260;SDS011;74405;44.868;18.808;2024-01-15T14:48:16;46.95;;;25.65;;
84260;SDS011;74405;44.868;18.808;2024-01-15T14:50:41;52.97;;;26.27;;
84260;SDS011;74405;44.868;18.808;2024-01-15T14:53:07;47.38;;;26.20;;
84260;SDS011;74405;44.868;18.808;2024-01-15T14:55:33;50.30;;;28.48;;
84260;SDS011;74405;44.868;18.808;2024-01-15T14:57:59;50.55;;;27.13;;
84260;SDS011;74405;44.868;18.808;2024-01-15T15:05:17;48.17;;;28.30;;
84260;SDS011;74405;44.868;18.808;2024-01-15T15:07:43;53.47;;;27.90;;
84260;SDS011;74405;44.868;18.808;2024-01-15T15:10:09;53.67;;;29.27;;
84260;SDS011;74405;44.868;18.808;2024-01-15T15:12:36;53.65;;;28.90;;
84260;SDS011;74405;44.868;18.808;2024-01-15T15:15:03;49.45;;;29.05;;
84260;SDS011;74405;44.868;18.808;2024-01-15T15:17:29;58.90;;;31.42;;
84260;SDS011;74405;44.868;18.808;2024-01-15T15:19:54;59.92;;;31.00;;
84260;SDS011;74405;44.868;18.808;2024-01-15T15:22:22;57.33;;;30.40;;
84260;SDS011;74405;44.868;18.808;2024-01-15T15:24:48;56.78;;;30.38;;
84260;SDS011;74405;44.868;18.808;2024-01-15T15:27:14;52.80;;;30.63;;
84260;SDS011;74405;44.868;18.808;2024-01-15T15:29:39;61.80;;;32.38;;
84260;SDS011;74405;44.868;18.808;2024-01-15T15:32:05;55.63;;;32.28;;
84260;SDS011;74405;44.868;18.808;2024-01-15T15:34:31;63.22;;;34.22;;
84260;SDS011;74405;44.868;18.808;2024-01-15T15:36:57;60.83;;;32.17;;
84260;SDS011;74405;44.868;18.808;2024-01-15T15:39:24;65.72;;;33.42;;
84260;SDS011;74405;44.868;18.808;2024-01-15T15:41:54;66.80;;;36.20;;
84260;SDS011;74405;44.868;18.808;2024-01-15T15:44:20;62.13;;;33.80;;
84260;SDS011;74405;44.868;18.808;2024-01-15T15:46:47;58.95;;;31.20;;
84260;SDS011;74405;44.868;18.808;2024-01-15T15:49:16;59.88;;;32.80;;
84260;SDS011;74405;44.868;18.808;2024-01-15T15:51:42;64.53;;;35.83;;
84260;SDS011;74405;44.868;18.808;2024-01-15T15:54:08;65.97;;;35.75;;
84260;SDS011;74405;44.868;18.808;2024-01-15T15:56:36;73.28;;;37.97;;
84260;SDS011;74405;44.868;18.808;2024-01-15T15:59:06;62.50;;;34.80;;
84260;SDS011;74405;44.868;18.808;2024-01-15T16:01:35;58.63;;;33.63;;
84260;SDS011;74405;44.868;18.808;2024-01-15T16:04:00;63.58;;;34.40;;
84260;SDS011;74405;44.868;18.808;2024-01-15T16:06:27;66.47;;;33.22;;
84260;SDS011;74405;44.868;18.808;2024-01-15T16:08:54;63.20;;;34.50;;
84260;SDS011;74405;44.868;18.808;2024-01-15T16:11:19;69.28;;;36.50;;
84260;SDS011;74405;44.868;18.808;2024-01-15T16:13:45;66.38;;;33.70;;
84260;SDS011;74405;44.868;18.808;2024-01-15T16:16:11;56.28;;;30.83;;
84260;SDS011;74405;44.868;18.808;2024-01-15T16:18:37;48.72;;;26.67;;
84260;SDS011;74405;44.868;18.808;2024-01-15T16:21:03;55.47;;;28.80;;
84260;SDS011;74405;44.868;18.808;2024-01-15T16:23:29;60.20;;;32.28;;
84260;SDS011;74405;44.868;18.808;2024-01-15T16:25:57;62.40;;;32.13;;
84260;SDS011;74405;44.868;18.808;2024-01-15T16:28:23;76.70;;;35.40;;
84260;SDS011;74405;44.868;18.808;2024-01-15T16:30:49;59.47;;;29.95;;
84260;SDS011;74405;44.868;18.808;2024-01-15T16:33:15;48.97;;;26.08;;
84260;SDS011;74405;44.868;18.808;2024-01-15T16:35:43;49.42;;;25.52;;
84260;SDS011;74405;44.868;18.808;2024-01-15T16:38:09;48.95;;;25.67;;
84260;SDS011;74405;44.868;18.808;2024-01-15T16:40:37;49.50;;;27.60;;
84260;SDS011;74405;44.868;18.808;2024-01-15T16:43:02;46.42;;;25.98;;
84260;SDS011;74405;44.868;18.808;2024-01-15T16:45:29;56.05;;;27.17;;
84260;SDS011;74405;44.868;18.808;2024-01-15T16:47:55;54.40;;;29.95;;
84260;SDS011;74405;44.868;18.808;2024-01-15T16:50:20;55.28;;;31.33;;
84260;SDS011;74405;44.868;18.808;2024-01-15T16:52:46;68.38;;;34.08;;
84260;SDS011;74405;44.868;18.808;2024-01-15T16:55:12;63.50;;;36.42;;
84260;SDS011;74405;44.868;18.808;2024-01-15T16:57:39;60.67;;;30.13;;
84260;SDS011;74405;44.868;18.808;2024-01-15T17:00:06;59.70;;;30.25;;
84260;SDS011;74405;44.868;18.808;2024-01-15T17:02:32;66.43;;;31.85;;
84260;SDS011;74405;44.868;18.808;2024-01-15T17:04:58;59.05;;;28.27;;
84260;SDS011;74405;44.868;18.808;2024-01-15T17:07:24;46.00;;;23.73;;
84260;SDS011;74405;44.868;18.808;2024-01-15T17:09:49;42.33;;;21.05;;
84260;SDS011;74405;44.868;18.808;2024-01-15T17:12:15;47.85;;;22.33;;
84260;SDS011;74405;44.868;18.808;2024-01-15T17:14:41;48.80;;;23.77;;
84260;SDS011;74405;44.868;18.808;2024-01-15T17:17:06;43.65;;;23.17;;
84260;SDS011;74405;44.868;18.808;2024-01-15T17:19:32;45.30;;;22.60;;
84260;SDS011;74405;44.868;18.808;2024-01-15T17:21:58;41.80;;;22.00;;
84260;SDS011;74405;44.868;18.808;2024-01-15T17:24:26;36.05;;;20.55;;
84260;SDS011;74405;44.868;18.808;2024-01-15T17:26:53;37.30;;;20.48;;
84260;SDS011;74405;44.868;18.808;2024-01-15T17:29:19;36.13;;;20.17;;
84260;SDS011;74405;44.868;18.808;2024-01-15T17:31:47;34.08;;;20.15;;
84260;SDS011;74405;44.868;18.808;2024-01-15T17:34:13;35.45;;;20.27;;
84260;SDS011;74405;44.868;18.808;2024-01-15T17:36:39;37.50;;;20.73;;
84260;SDS011;74405;44.868;18.808;2024-01-15T17:39:05;42.20;;;23.77;;
84260;SDS011;74405;44.868;18.808;2024-01-15T17:41:31;40.30;;;20.80;;